메인 페이지
METAR-TAF:

METAR-TAF

공항 :

극북의 땅, 그린란드

위도: 76-32N, 경도: 068-42W, 고도: 77m

현재 날씨관측

예보는 31분 전, 14:56시(UTC)에 발표되었습니다.
남동9kt
온도 -25°C
습도 76%
기압 1002 hPa
시정 10km 이상
맑음

METAR: BGTL 111456Z AUTO 13009KT 9999 CLR M25/M28 A2958 RMK AO2 SLP009 T12531280 57015 TSNO $

시각: 11:27 (15:27 UTC)

예보

예보는 5 시간 27분 전, 10:00시(UTC)에 발표되었습니다.
예보 대상 시간: 11일 10시부터 12일 16시까지 (UTC)
동남동10kt, 순간 최대 풍속 15kt
시정 10km 이상
고도 10000ft 상공 구름 보통
전환 중
11일 20시부터 11일 21시까지 (UTC)
12kt, 순간 최대 풍속 18kt
시정 10km 이상
고도 2000ft 상공 구름 많음
고도 10000ft 상공 흐림
일시적
11일 21시부터 12일 03시까지 (UTC)
20kt, 순간 최대 풍속 30kt
전환 중
12일 02시부터 12일 03시까지 (UTC)
20kt, 순간 최대 풍속 30kt
시정: 9000m
고도 10000ft 상공 구름 많음
낮은 날린눈
전환 중
12일 08시부터 12일 09시까지 (UTC)
동북동12kt, 순간 최대 풍속 18kt
시정: 1112m
고도 10000ft 상공 구름 보통

TAF: BGTL 111000Z 1110/1216 12010G15KT 9999 SCT100 QNH2943INS BECMG 1120/1121 10012G18KT 9999 BKN020 OVC100 QNH2933INS TEMPO 1121/1203 10020G30KT 520009 BECMG 1202/1203 10020G30KT 9000 DRSN BKN100 520009 QNH2920INS BECMG 1208/1209 07012G18KT 9999 NSW SCT100 QNH2914INS TXM20/1123Z TNM29/1209Z LIMITED METWATCH 1110 TIL 1112

4,000개 이상의 공항 관측 자료 및 예보 (METAR 및 TAF 보고).

지도상에서 검색 가능한 기상관측소가 노란 점과 빨간 점으로 표시되어 있습니다.

기상관측소 명을 보려면 표시 위로 마우스를 이동하세요.

날씨 관측과 예보를 보려면 클릭하세요.

지도 변경 : 확대하려면 엑스 표시가 있는 녹색 버튼, 축소하려면 빼기 표시가 있는 녹색 버튼, 다음 페이지의 지도를 보려면 녹색 화살표를 클릭하세요.


METAR-TAF: